ADDS METAR Data INFO
IDs: Format: Raw Decoded Include TAF

Data at: 0116 UTC 20 Feb 2018

KOGA 200055Z AUTO 02013KT 3SM -SN OVC014 M12/M14 A2981 RMK AO2 T11171140
KOGA 200035Z AUTO 03010KT 3SM -SN OVC014 M11/M13 A2981 RMK AO2 T11151135
KOGA 200015Z AUTO 03013KT 2 1/2SM -SN SCT010 OVC016 M11/M13 A2980 RMK AO2 T11131135
KOGA 192355Z AUTO 02011KT 2 1/2SM -SN OVC014 M11/M13 A2979 RMK AO2 T11121135 11102 21112
KOGA 192335Z AUTO 04010KT 4SM -SN OVC014 M11/M13 A2979 RMK AO2 T11111134
KOGA 192315Z AUTO 03012KT 4SM -SN OVC014 M11/M13 A2978 RMK AO2 T11101135
KOGA 192255Z AUTO 03013KT 2 1/2SM -SN OVC014 M11/M13 A2979 RMK AO2 VIS 1V5 T11101135
KOGA 192235Z AUTO 04013KT 5SM -SN OVC014 M11/M13 A2978 RMK AO2 T11081134
KOGA 192215Z AUTO 03011KT 4SM -SN OVC012 M11/M13 A2977 RMK AO2 T11061130
KOGA 192155Z AUTO 02012KT 3SM -SN OVC012 M10/M13 A2977 RMK AO2 T11051129
KOGA 192135Z AUTO 04013KT 5SM -SN OVC012 M11/M13 A2977 RMK AO2 T11061130
KOGA 192115Z AUTO 03013KT 5SM -SN OVC012 M10/M13 A2978 RMK AO2 T11051130
KOGA 192055Z AUTO 03011G15KT 2 1/2SM -SN OVC012 M10/M13 A2978 RMK AO2 VIS 1V5 T11051129
KOGA 192035Z AUTO 02011KT 3SM -SN OVC012 M10/M13 A2978 RMK AO2 T11031127
KOGA 192015Z AUTO 04012KT 5SM -SN OVC012 M11/M13 A2978 RMK AO2 T11061130
KOGA 191955Z AUTO 04012KT 5SM -SN OVC014 M10/M13 A2979 RMK AO2 T11051130
KOGA 191935Z AUTO 03011KT 7SM OVC014 M10/M13 A2981 RMK AO2 T11051131
KOGA 191915Z AUTO 02012G16KT 7SM -SN OVC014 M10/M13 A2981 RMK AO2 T11041130
KOGA 191855Z AUTO 02013KT 7SM -SN OVC014 M10/M13 A2982 RMK AO2 T11031129
KOGA 191835Z AUTO 02013KT 7SM OVC014 M11/M13 A2984 RMK AO2 T11071134
KOGA 191815Z AUTO 01010KT 5SM -SN OVC014 M11/M13 A2984 RMK AO2 T11061132
KOGA 191755Z AUTO 03010KT 7SM OVC014 M10/M13 A2984 RMK AO2 T11051131 11100 21110
KOGA 191735Z AUTO 02010KT 7SM OVC014 M11/M13 A2984 RMK AO2 T11061133
KOGA 191715Z AUTO 01013G16KT 7SM OVC014 M11/M13 A2984 RMK AO2 T11081135
KOGA 191655Z AUTO 02013KT 10SM OVC014 M11/M14 A2985 RMK AO2 T11081136
KOGA 191635Z AUTO 01014KT 5SM -SN OVC014 M11/M14 A2985 RMK AO2 T11101137
KOGA 191615Z AUTO 01014KT 4SM -SN OVC014 M11/M13 A2986 RMK AO2 T11071133
KOGA 191555Z AUTO 02014G17KT 7SM OVC014 M11/M13 A2986 RMK AO2 T11071135
KOGA 191535Z AUTO 01013G16KT 10SM OVC016 M11/M13 A2986 RMK AO2 T11101135
KOGA 191515Z AUTO 36014KT 5SM -SN OVC016 M11/M13 A2986 RMK AO2 T11081134
KOGA 191455Z AUTO 01014G18KT 7SM OVC016 M11/M13 A2986 RMK AO2 T11101135
KOGA 191435Z AUTO 02013KT 10SM OVC016 M11/M14 A2985 RMK AO2 T11101137
KOGA 191420Z AUTO 01014G18KT 7SM OVC016 M11/M13 A2984 RMK AO2 T11061133
KOGA 191355Z AUTO 02014KT 10SM OVC016 M10/M13 A2984 RMK AO2 T11051132
KOGA 191335Z AUTO 01012KT 10SM OVC018 M10/M13 A2985 RMK AO2 T11051131
KOGA 191315Z AUTO 01012KT 10SM OVC016 M10/M13 A2984 RMK AO2 T11051133
KOGA 191255Z AUTO 01014KT 7SM -SN OVC016 M10/M13 A2984 RMK AO2 T11011127
KOGA 191235Z AUTO 36013G18KT 7SM -SN OVC016 M10/M12 A2984 RMK AO2 T11011125
KOGA 191215Z AUTO 36015KT 5SM -SN OVC016 M10/M12 A2982 RMK AO2 T11021125
KOGA 191155Z AUTO 01011G22KT 4SM -SN OVC016 M10/M12 A2981 RMK AO2 T11011123 11075 21102
KOGA 191135Z AUTO 36014KT 3SM -SN SCT014 OVC020 M10/M12 A2980 RMK AO2 T11001120
KOGA 191115Z AUTO 01016KT 4SM -SN SCT015 OVC020 M10/M12 A2981 RMK AO2 T11021125
KOGA 191055Z AUTO 36014KT 3SM -SN SCT014 OVC020 M10/M12 A2981 RMK AO2 T11001124
KOGA 191035Z AUTO 36014KT 4SM -SN BKN016 OVC020 M10/M12 A2982 RMK AO2 T10991123
KOGA 191015Z AUTO 36012KT 3SM -SN OVC019 M10/M12 A2982 RMK AO2 T10991125
KOGA 190955Z AUTO 35015KT 4SM -SN OVC017 M10/M12 A2981 RMK AO2 T10971125
KOGA 190935Z AUTO 36018KT 5SM -SN OVC017 M09/M12 A2981 RMK AO2 T10951124
KOGA 190915Z AUTO 36014KT 7SM -SN OVC017 M09/M12 A2981 RMK AO2 T10951125
KOGA 190855Z AUTO 36013G19KT 10SM -SN OVC017 M09/M12 A2982 RMK AO2 T10911124
KOGA 190835Z AUTO 36018G24KT 10SM -SN OVC017 M09/M12 A2979 RMK AO2 T10921125
KOGA 190815Z AUTO 36017G20KT 10SM -SN OVC017 M09/M12 A2981 RMK AO2 T10901123
KOGA 190755Z AUTO 02019G25KT 7SM -SN OVC017 M09/M12 A2979 RMK AO2 T10901125
KOGA 190735Z AUTO 36018KT 10SM -SN OVC019 M09/M12 A2979 RMK AO2 T10871121
KOGA 190715Z AUTO 36018G25KT 7SM -SN OVC019 M08/M12 A2980 RMK AO2 T10851120
KOGA 190655Z AUTO 36017G23KT 7SM -SN OVC019 M08/M11 A2978 RMK AO2 T10801115 401461080
KOGA 190635Z AUTO 01020G27KT 7SM -SN OVC017 M08/M11 A2977 RMK AO2 T10781113
KOGA 190615Z AUTO 01020G26KT 10SM -SN OVC017 M08/M11 A2975 RMK AO2 T10761112
KOGA 190555Z AUTO 36021G26KT 7SM -SN OVC017 M07/M11 A2974 RMK AO2 T10751107 10016 21075
KOGA 190535Z AUTO 01016G27KT 10SM -SN OVC017 M07/M11 A2972 RMK AO2 T10721107
KOGA 190515Z AUTO 01020G25KT 10SM OVC015 M07/M10 A2970 RMK AO2 T10681100
KOGA 190455Z AUTO 02021G28KT 10SM -SN OVC015 M07/M10 A2970 RMK AO2 T10661099
KOGA 190435Z AUTO 02018G24KT 10SM OVC013 M06/M09 A2970 RMK AO2 T10591089
KOGA 190415Z AUTO 03020G25KT 10SM OVC013 M05/M08 A2969 RMK AO2 T10551084
KOGA 190355Z AUTO 02018G23KT 10SM OVC013 M05/M08 A2968 RMK AO2 T10531083
KOGA 190335Z AUTO 02016G25KT 10SM OVC013 M05/M08 A2966 RMK AO2 T10511080
KOGA 190315Z AUTO 36021G29KT 10SM OVC013 M05/M08 A2965 RMK AO2 T10481076
KOGA 190255Z AUTO 36024G29KT 10SM OVC011 M04/M07 A2963 RMK AO2 T10451071
KOGA 190235Z AUTO 01024G29KT 10SM OVC011 M04/M07 A2962 RMK AO2 T10411066
KOGA 190215Z AUTO 02022G28KT 10SM OVC009 M03/M06 A2961 RMK AO2 T10351057
KOGA 190155Z AUTO 01027KT 10SM OVC009 M03/M05 A2960 RMK AO2 T10311052
KOGA 190135Z AUTO 02024G29KT 10SM OVC011 M02/M05 A2959 RMK AO2 T10241046
KOGA 190115Z AUTO 02025G32KT 10SM OVC011 M01/M04 A2957 RMK AO2 T10151041
KOGA 190055Z AUTO 02026G34KT 10SM OVC011 M01/M04 A2957 RMK AO2 T10101038
KOGA 190035Z AUTO 02024G32KT 10SM OVC011 00/M03 A2956 RMK AO2 T10051030
KOGA 190015Z AUTO 02026G31KT 10SM BKN013 00/M02 A2955 RMK AO2 T00031025
KOGA 182355Z AUTO 03024G30KT 10SM CLR 02/M02 A2954 RMK AO2 T00171020 10146 20017
KOGA 182335Z AUTO 03023G31KT 10SM CLR 05/M01 A2952 RMK AO2 T00531006
KOGA 182315Z AUTO 04022G29KT 10SM CLR 08/00 A2951 RMK AO2 T00750000
KOGA 182255Z AUTO 05022G27KT 10SM CLR 10/M01 A2949 RMK AO2 T00961012
KOGA 182235Z AUTO 05018KT 10SM CLR 10/M02 A2947 RMK AO2 T01031023
KOGA 182215Z AUTO 05021KT 10SM CLR 11/M02 A2946 RMK AO2 T01121023
KOGA 182155Z AUTO 05017G22KT 10SM CLR 12/M03 A2945 RMK AO2 T01191026
KOGA 182135Z AUTO 07015KT 10SM CLR 14/M01 A2945 RMK AO2 T01371015
KOGA 182115Z AUTO 07010KT 10SM CLR 14/M02 A2944 RMK AO2 T01391020
KOGA 182055Z AUTO 08012G15KT 10SM CLR 14/M01 A2944 RMK AO2 T01421010
KOGA 182035Z AUTO 10003KT 10SM CLR 15/M03 A2943 RMK AO2 T01451028
KOGA 182015Z AUTO 00000KT 10SM CLR 13/M02 A2944 RMK AO2 T01291023
KOGA 181955Z AUTO 15004KT 10SM CLR 11/M02 A2944 RMK AO2 T01131017
KOGA 181935Z AUTO 15006KT 10SM CLR 09/M03 A2945 RMK AO2 T00921027
KOGA 181915Z AUTO 09005KT 10SM CLR 09/M03 A2945 RMK AO2 T00851026
KOGA 181855Z AUTO 06003KT 10SM CLR 08/M03 A2946 RMK AO2 T00771033
KOGA 181835Z AUTO 03003KT 10SM CLR 07/M03 A2948 RMK AO2 T00711029
KOGA 181815Z AUTO 00000KT 10SM CLR 07/M03 A2950 RMK AO2 T00681031
KOGA 181755Z AUTO 00000KT 10SM CLR 06/M03 A2950 RMK AO2 T00551030 10055 21017
KOGA 181735Z AUTO 00000KT 10SM CLR 05/M04 A2950 RMK AO2 T00511039
KOGA 181715Z AUTO 00000KT 10SM CLR 04/M04 A2952 RMK AO2 T00431038
KOGA 181655Z AUTO 00000KT 10SM CLR 03/M03 A2954 RMK AO2 T00301030
KOGA 181635Z AUTO 00000KT 10SM CLR 03/M03 A2954 RMK AO2 T00251028
KOGA 181615Z AUTO 00000KT 10SM CLR 02/M03 A2954 RMK AO2 T00231029
KOGA 181555Z AUTO 00000KT 10SM CLR 02/M03 A2954 RMK AO2 T00191034
KOGA 181535Z AUTO 00000KT 10SM CLR 02/M03 A2954 RMK AO2 T00161034
KOGA 181515Z AUTO 22003KT 10SM CLR 01/M04 A2954 RMK AO2 T00081037
KOGA 181455Z AUTO 19003KT 10SM CLR 01/M04 A2954 RMK AO2 T00051039
KOGA 181435Z AUTO 19004KT 10SM CLR 00/M04 A2955 RMK AO2 T00001041
KOGA 181415Z AUTO 18004KT 10SM CLR 00/M04 A2955 RMK AO2 T00001043
KOGA 181355Z AUTO 00000KT 10SM CLR M01/M04 A2955 RMK AO2 T10151041
KOGA 181335Z AUTO 24003KT 10SM CLR M01/M04 A2956 RMK AO2 T10151044